Time;durP1;ratioP1;P1;durP2;ratioP2;P2;SDS_P1;SDS_P2;PMS_P1;PMS_P2;Temp;Humidity;BMP_temperature;BMP_pressure;BME280_temperature;BME280_humidity;BME280_pressure;Samples;Min_cycle;Max_cycle;Signal;HPM_P1;HPM_P2
2021/12/28 00:00:17;;;;;;;30.23;5.00;;;12.80;99.90;;;;;;5067957;28;20024;-59
2021/12/28 00:02:47;;;;;;;30.83;5.28;;;12.90;99.90;;;;;;5067483;28;20065;-59
2021/12/28 00:05:14;;;;;;;35.97;6.15;;;12.90;99.90;;;;;;5068948;28;20043;-59
2021/12/28 00:07:40;;;;;;;35.17;6.20;;;12.90;99.90;;;;;;5070600;28;20029;-59
2021/12/28 00:10:10;;;;;;;36.60;5.35;;;12.90;99.90;;;;;;5070713;28;20066;-59
2021/12/28 00:12:37;;;;;;;34.88;5.93;;;12.90;99.90;;;;;;5067347;28;20032;-59
2021/12/28 00:15:17;;;;;;;35.30;5.32;;;12.90;99.90;;;;;;5069195;28;20395;-59
2021/12/28 00:20:33;;;;;;;34.38;5.63;;;13.00;99.90;;;;;;5068007;28;20411;-59
2021/12/28 00:23:00;;;;;;;33.97;5.90;;;13.10;99.90;;;;;;5067811;28;20036;-58
2021/12/28 00:25:27;;;;;;;34.35;5.95;;;13.10;99.90;;;;;;5070930;28;20068;-59
2021/12/28 00:27:53;;;;;;;31.33;6.13;;;13.10;99.90;;;;;;5067628;28;20471;-59
2021/12/28 00:30:19;;;;;;;31.20;6.65;;;13.10;99.90;;;;;;5067595;28;20085;-58
2021/12/28 00:32:52;;;;;;;35.72;8.60;;;13.20;99.90;;;;;;5067130;28;20422;-58
2021/12/28 00:35:30;;;;;;;35.67;10.60;;;13.30;99.90;;;;;;5067612;28;20028;-58
2021/12/28 00:37:56;;;;;;;30.85;5.28;;;13.30;99.90;;;;;;5068431;28;20040;-59
2021/12/28 00:40:22;;;;;;;31.80;5.40;;;13.30;99.90;;;;;;5070250;28;20020;-59
2021/12/28 00:42:48;;;;;;;41.88;20.00;;;13.40;99.90;;;;;;5067047;28;20036;-58
2021/12/28 00:45:14;;;;;;;31.17;7.90;;;13.30;99.90;;;;;;5068662;28;20024;-59
2021/12/28 00:47:41;;;;;;;32.10;6.35;;;13.30;99.90;;;;;;5067259;28;20036;-58
2021/12/28 00:50:08;;;;;;;28.85;7.38;;;13.30;99.90;;;;;;5067475;28;20095;-59
2021/12/28 00:52:34;;;;;;;28.50;7.95;;;13.20;99.90;;;;;;5071550;28;20104;-59
2021/12/28 00:55:01;;;;;;;35.95;12.52;;;13.30;99.90;;;;;;5068014;28;20032;-59
2021/12/28 00:57:28;;;;;;;66.45;33.55;;;13.20;99.90;;;;;;5067080;28;20029;-59
2021/12/28 00:59:53;;;;;;;33.33;10.35;;;13.20;99.90;;;;;;5067447;28;20036;-58
2021/12/28 01:02:19;;;;;;;54.58;28.30;;;13.20;99.90;;;;;;5066871;28;20021;-58
2021/12/28 01:04:45;;;;;;;47.25;20.67;;;13.20;99.90;;;;;;5070221;28;20047;-59
2021/12/28 01:07:11;;;;;;;33.97;9.35;;;13.30;99.90;;;;;;5068794;28;20028;-58
2021/12/28 01:09:37;;;;;;;31.83;7.30;;;13.20;99.90;;;;;;5067172;28;20127;-58
2021/12/28 01:12:05;;;;;;;26.33;4.97;;;13.20;99.90;;;;;;5066870;28;20040;-59
2021/12/28 01:14:31;;;;;;;41.70;15.30;;;13.20;99.90;;;;;;5067872;28;20016;-58
2021/12/28 01:16:59;;;;;;;37.20;14.38;;;13.20;99.90;;;;;;5072978;28;20020;-59
2021/12/28 01:19:25;;;;;;;41.30;15.27;;;13.20;99.90;;;;;;5074337;28;20036;-59
2021/12/28 01:21:51;;;;;;;26.65;9.30;;;13.20;99.90;;;;;;5070779;28;20521;-59
2021/12/28 01:24:18;;;;;;;61.22;31.30;;;13.20;99.90;;;;;;5072484;28;20032;-59
2021/12/28 01:26:47;;;;;;;22.98;6.50;;;13.30;99.90;;;;;;5072128;28;20026;-59
2021/12/28 01:29:13;;;;;;;35.13;13.05;;;13.30;99.90;;;;;;5071134;28;20036;-59
2021/12/28 01:31:38;;;;;;;28.13;6.50;;;13.20;99.90;;;;;;5073858;28;20073;-59
2021/12/28 01:34:06;;;;;;;28.02;6.00;;;13.30;99.90;;;;;;5073198;28;20131;-59
2021/12/28 01:36:32;;;;;;;31.35;10.05;;;13.30;99.90;;;;;;5070795;28;20032;-59
2021/12/28 01:38:58;;;;;;;53.33;27.77;;;13.30;99.90;;;;;;5070598;28;20039;-58
2021/12/28 01:41:23;;;;;;;78.07;45.63;;;13.30;99.90;;;;;;5070159;28;20155;-59
2021/12/28 01:44:01;;;;;;;33.78;11.07;;;13.30;99.90;;;;;;5072930;28;20119;-59
2021/12/28 01:46:28;;;;;;;71.82;38.67;;;13.30;99.90;;;;;;5074466;28;20056;-58
2021/12/28 01:48:53;;;;;;;26.65;5.00;;;13.30;99.90;;;;;;5070681;28;20032;-59
2021/12/28 01:51:21;;;;;;;52.80;22.58;;;13.30;99.90;;;;;;5070083;28;20399;-58
2021/12/28 01:53:49;;;;;;;44.08;20.65;;;13.20;99.90;;;;;;5069949;28;20033;-58
2021/12/28 01:56:24;;;;;;;42.00;20.05;;;13.30;99.90;;;;;;5070535;28;20028;-59
2021/12/28 01:58:50;;;;;;;28.77;8.68;;;13.30;99.90;;;;;;5071969;28;20036;-59
2021/12/28 02:01:16;;;;;;;30.77;7.60;;;13.40;99.90;;;;;;5072253;28;20375;-58
2021/12/28 02:03:43;;;;;;;29.98;7.25;;;13.40;99.90;;;;;;5071506;28;20044;-58
2021/12/28 02:06:11;;;;;;;38.05;15.05;;;13.40;99.90;;;;;;5070224;28;20036;-59
2021/12/28 02:08:37;;;;;;;53.00;26.75;;;13.40;99.90;;;;;;5069774;28;20109;-58
2021/12/28 02:11:04;;;;;;;31.73;9.25;;;13.40;99.90;;;;;;5071212;28;20494;-58
2021/12/28 02:13:30;;;;;;;52.13;22.35;;;13.50;99.90;;;;;;5074659;28;20040;-58
2021/12/28 02:15:58;;;;;;;42.30;20.50;;;13.50;99.90;;;;;;5070052;28;20113;-58
2021/12/28 02:18:26;;;;;;;48.30;15.73;;;13.50;99.90;;;;;;5069860;28;20050;-58
2021/12/28 02:20:53;;;;;;;36.65;8.80;;;13.50;99.90;;;;;;5069390;28;20107;-58
2021/12/28 02:23:19;;;;;;;31.33;8.75;;;13.50;99.90;;;;;;5069600;28;20116;-58
2021/12/28 02:25:45;;;;;;;30.42;7.03;;;13.60;99.90;;;;;;5071944;28;20040;-59
2021/12/28 02:28:13;;;;;;;52.88;21.25;;;13.60;99.90;;;;;;5071246;28;20040;-58
2021/12/28 02:30:42;;;;;;;38.15;10.70;;;13.60;99.90;;;;;;5069736;28;20033;-59
2021/12/28 02:33:07;;;;;;;47.53;8.90;;;13.60;99.90;;;;;;5069415;28;20053;-59
2021/12/28 02:35:34;;;;;;;37.33;7.38;;;13.60;99.90;;;;;;5069835;28;20032;-58
2021/12/28 02:38:02;;;;;;;39.50;9.07;;;13.60;99.90;;;;;;5069415;28;20052;-58
2021/12/28 02:40:30;;;;;;;41.42;7.43;;;13.70;99.90;;;;;;5073169;28;20470;-58
2021/12/28 02:42:58;;;;;;;48.10;11.63;;;13.60;99.90;;;;;;5071285;28;20044;-58
2021/12/28 02:45:36;;;;;;;41.10;9.40;;;13.60;99.90;;;;;;5069480;28;20405;-59
2021/12/28 02:48:03;;;;;;;54.85;11.20;;;13.60;99.90;;;;;;5069536;28;20032;-59
2021/12/28 02:50:32;;;;;;;41.17;6.95;;;13.60;99.90;;;;;;5070986;28;20555;-59
2021/12/28 02:52:58;;;;;;;45.22;12.20;;;13.60;99.90;;;;;;5070305;28;20107;-58
2021/12/28 02:55:26;;;;;;;51.05;10.98;;;13.70;99.90;;;;;;5072475;28;20017;-58
2021/12/28 02:57:57;;;;;;;41.13;6.97;;;13.70;99.90;;;;;;5069066;28;20037;-58
2021/12/28 03:00:47;;;;;;;41.53;9.27;;;13.70;99.90;;;;;;5069408;28;20091;-59
2021/12/28 03:03:16;;;;;;;39.72;7.15;;;13.80;99.90;;;;;;5069021;28;20051;-59
2021/12/28 03:05:44;;;;;;;45.53;7.95;;;13.80;99.90;;;;;;5069100;28;20075;-58
2021/12/28 03:08:11;;;;;;;45.70;9.80;;;13.80;99.90;;;;;;5069009;28;20093;-59
2021/12/28 03:10:38;;;;;;;36.88;8.88;;;13.80;99.90;;;;;;5072353;28;20517;-59
2021/12/28 03:13:06;;;;;;;38.67;7.80;;;13.80;99.90;;;;;;5070252;28;20483;-59
2021/12/28 03:15:32;;;;;;;40.78;10.25;;;13.90;99.90;;;;;;5069026;28;20021;-59
2021/12/28 03:17:57;;;;;;;42.88;9.88;;;13.90;99.90;;;;;;5068747;28;20517;-59
2021/12/28 03:20:23;;;;;;;32.65;8.52;;;13.80;99.90;;;;;;5070813;28;20029;-59
2021/12/28 03:22:49;;;;;;;38.88;7.60;;;13.90;99.90;;;;;;5071341;28;20020;-59
2021/12/28 03:25:15;;;;;;;36.80;8.05;;;13.90;99.90;;;;;;5070300;28;20044;-59
2021/12/28 03:27:42;;;;;;;41.45;6.10;;;13.90;99.90;;;;;;5068736;28;20021;-59
2021/12/28 03:30:13;;;;;;;40.53;6.65;;;14.00;99.90;;;;;;5070537;28;20067;-58
2021/12/28 03:32:39;;;;;;;44.45;11.32;;;13.90;99.90;;;;;;5068248;28;20041;-59
2021/12/28 03:35:07;;;;;;;62.33;18.42;;;13.90;99.90;;;;;;5052867;28;20424;-59
2021/12/28 03:37:34;;;;;;;46.08;10.68;;;13.90;99.90;;;;;;5067323;28;20108;-58
2021/12/28 03:40:01;;;;;;;45.80;11.63;;;13.90;99.90;;;;;;5068161;28;20028;-59
2021/12/28 03:42:27;;;;;;;43.20;10.38;;;13.90;99.90;;;;;;5068247;28;20021;-58
2021/12/28 03:44:53;;;;;;;50.47;12.25;;;13.90;99.90;;;;;;5068317;28;20380;-59
2021/12/28 03:47:19;;;;;;;47.90;9.65;;;13.90;99.90;;;;;;5068664;28;20028;-59
2021/12/28 03:49:44;;;;;;;47.30;10.50;;;14.00;99.90;;;;;;5069162;28;20039;-58
2021/12/28 03:52:10;;;;;;;48.70;8.73;;;14.00;99.90;;;;;;5069717;28;20051;-58
2021/12/28 03:54:36;;;;;;;41.25;9.07;;;14.00;99.90;;;;;;5068488;28;20123;-59
2021/12/28 03:57:04;;;;;;;44.10;6.85;;;14.00;99.90;;;;;;5068160;28;20073;-57
2021/12/28 03:59:30;;;;;;;44.78;7.78;;;14.00;99.90;;;;;;5069889;28;20372;-59
2021/12/28 04:01:56;;;;;;;47.00;9.00;;;14.00;99.90;;;;;;5069402;28;20487;-58
2021/12/28 04:04:23;;;;;;;44.67;8.93;;;14.20;99.90;;;;;;5070390;28;20063;-59
2021/12/28 04:06:49;;;;;;;36.08;6.95;;;14.10;99.90;;;;;;5067719;28;20032;-59
2021/12/28 04:09:21;;;;;;;43.08;7.97;;;14.20;99.90;;;;;;5069378;28;20488;-59
2021/12/28 04:11:47;;;;;;;46.78;7.28;;;14.10;99.90;;;;;;5068260;28;20095;-59
2021/12/28 04:14:13;;;;;;;34.28;6.07;;;14.10;99.90;;;;;;5068038;28;20024;-59
2021/12/28 04:16:39;;;;;;;36.90;6.72;;;14.10;99.90;;;;;;5070583;28;20090;-59
2021/12/28 04:19:05;;;;;;;35.92;6.53;;;14.10;99.90;;;;;;5068813;28;20063;-58
2021/12/28 04:21:33;;;;;;;42.25;6.63;;;14.10;99.90;;;;;;5067625;28;20031;-59
2021/12/28 04:23:58;;;;;;;44.50;7.60;;;14.10;99.90;;;;;;5067867;28;20521;-58
2021/12/28 04:26:26;;;;;;;44.47;7.18;;;14.20;99.90;;;;;;5067812;28;20029;-58
2021/12/28 04:28:51;;;;;;;41.88;6.85;;;14.10;99.90;;;;;;5069992;28;20078;-59
2021/12/28 04:31:18;;;;;;;36.88;6.55;;;14.20;99.90;;;;;;5069646;28;20036;-59
2021/12/28 04:33:43;;;;;;;41.63;6.20;;;14.30;99.90;;;;;;5067166;28;20528;-59
2021/12/28 04:36:12;;;;;;;38.38;7.20;;;14.30;99.90;;;;;;5067504;28;20024;-59
2021/12/28 04:38:39;;;;;;;40.92;6.57;;;14.30;99.90;;;;;;5069082;28;20027;-59
2021/12/28 04:41:05;;;;;;;33.53;6.70;;;14.40;99.90;;;;;;5052344;28;20150;-58
2021/12/28 04:43:32;;;;;;;41.30;6.38;;;14.30;99.90;;;;;;5071669;28;20066;-59
2021/12/28 04:45:58;;;;;;;41.65;7.57;;;14.30;99.90;;;;;;5067209;28;20060;-59
2021/12/28 04:48:24;;;;;;;33.92;7.20;;;14.40;99.90;;;;;;5068991;28;20029;-58
2021/12/28 04:50:50;;;;;;;37.35;7.38;;;14.40;99.90;;;;;;5066562;28;20033;-59
2021/12/28 04:53:15;;;;;;;36.88;6.53;;;14.40;99.90;;;;;;5067809;28;20025;-59
2021/12/28 04:55:43;;;;;;;39.35;6.65;;;14.40;99.90;;;;;;5070132;28;20074;-59
2021/12/28 04:58:10;;;;;;;35.35;6.22;;;14.30;99.90;;;;;;5070291;28;20028;-59
2021/12/28 05:00:36;;;;;;;37.42;6.50;;;14.40;99.90;;;;;;5067105;28;20039;-59
2021/12/28 05:03:02;;;;;;;35.80;5.80;;;14.30;99.90;;;;;;5067366;28;20103;-59
2021/12/28 05:05:28;;;;;;;40.40;6.63;;;14.30;99.90;;;;;;5067396;28;20036;-59
2021/12/28 05:07:54;;;;;;;39.08;7.35;;;14.30;99.90;;;;;;5069124;28;20036;-59
2021/12/28 05:10:21;;;;;;;35.67;5.97;;;14.30;99.90;;;;;;5069613;28;20047;-59
2021/12/28 05:12:46;;;;;;;39.45;6.63;;;14.30;99.90;;;;;;5067228;28;20360;-59
2021/12/28 05:15:12;;;;;;;33.45;5.97;;;14.30;99.90;;;;;;5067060;28;20035;-58
2021/12/28 05:17:38;;;;;;;33.45;5.45;;;14.30;99.90;;;;;;5068913;28;20028;-58
2021/12/28 05:20:06;;;;;;;32.33;5.75;;;14.30;99.90;;;;;;5067840;28;20036;-59
2021/12/28 05:22:32;;;;;;;32.40;5.78;;;14.30;99.90;;;;;;5069705;28;20112;-59
2021/12/28 05:24:58;;;;;;;40.25;6.45;;;14.30;99.90;;;;;;5067053;28;20033;-58
2021/12/28 05:27:23;;;;;;;37.28;5.97;;;14.40;99.90;;;;;;5068699;28;20027;-59
2021/12/28 05:29:49;;;;;;;34.80;5.72;;;14.40;99.90;;;;;;5067054;28;20032;-59
2021/12/28 05:32:16;;;;;;;36.70;5.47;;;14.40;99.90;;;;;;5066709;28;20037;-59
2021/12/28 05:34:42;;;;;;;38.50;6.15;;;14.40;99.90;;;;;;5068661;28;20032;-59
2021/12/28 05:37:08;;;;;;;34.83;5.80;;;14.40;99.90;;;;;;5068575;28;20028;-59
2021/12/28 05:39:34;;;;;;;32.47;5.80;;;14.40;99.90;;;;;;5066984;28;20024;-59
2021/12/28 05:42:00;;;;;;;24.42;4.70;;;14.50;99.90;;;;;;5066956;28;20029;-58
2021/12/28 05:44:26;;;;;;;23.88;5.10;;;14.50;99.90;;;;;;5066885;28;20449;-59
2021/12/28 05:46:54;;;;;;;26.63;5.40;;;14.50;99.90;;;;;;5069445;28;20017;-58
2021/12/28 05:49:19;;;;;;;28.38;4.63;;;14.50;99.90;;;;;;5069107;28;20162;-58
2021/12/28 05:51:45;;;;;;;27.55;4.70;;;14.40;99.90;;;;;;5066582;28;20067;-58
2021/12/28 05:54:12;;;;;;;26.73;4.57;;;14.50;99.90;;;;;;5066846;28;20024;-58
2021/12/28 05:56:38;;;;;;;24.65;4.18;;;14.50;99.90;;;;;;5068858;28;20033;-58
2021/12/28 05:59:03;;;;;;;27.02;5.22;;;14.50;99.90;;;;;;5067400;28;20033;-59
2021/12/28 06:01:29;;;;;;;29.02;5.28;;;14.50;99.90;;;;;;5070476;28;20024;-58
2021/12/28 06:03:55;;;;;;;28.45;5.55;;;14.50;99.90;;;;;;5070413;28;20032;-58
2021/12/28 06:06:21;;;;;;;25.15;4.90;;;14.50;99.90;;;;;;5071727;28;20276;-58
2021/12/28 06:08:46;;;;;;;28.05;5.20;;;14.50;99.90;;;;;;5070078;28;20032;-58
2021/12/28 06:11:13;;;;;;;26.23;5.57;;;14.50;99.90;;;;;;5070487;28;20033;-58
2021/12/28 06:13:42;;;;;;;29.60;6.05;;;14.50;99.90;;;;;;5073937;28;20028;-58
2021/12/28 06:16:10;;;;;;;26.80;5.30;;;14.50;99.90;;;;;;5071236;28;20437;-58
2021/12/28 06:18:36;;;;;;;35.92;5.95;;;14.50;99.90;;;;;;5069888;28;20043;-58
2021/12/28 06:21:02;;;;;;;35.58;5.88;;;14.50;99.90;;;;;;5069894;28;20031;-59
2021/12/28 06:23:27;;;;;;;35.45;6.55;;;14.50;99.90;;;;;;5070044;28;20120;-58
2021/12/28 06:25:53;;;;;;;35.28;5.85;;;14.60;99.90;;;;;;5071953;28;20111;-58
2021/12/28 06:28:19;;;;;;;27.73;5.68;;;14.50;99.90;;;;;;5071874;28;20405;-58
2021/12/28 06:30:45;;;;;;;26.65;4.70;;;14.50;99.90;;;;;;5069741;28;20036;-59
2021/12/28 06:33:11;;;;;;;22.67;4.90;;;14.60;99.90;;;;;;5070080;28;20063;-59
2021/12/28 06:35:37;;;;;;;23.02;4.70;;;14.60;99.90;;;;;;5071375;28;20025;-59
2021/12/28 06:38:03;;;;;;;19.17;3.88;;;14.60;99.90;;;;;;5070421;28;20032;-58
2021/12/28 06:40:29;;;;;;;15.55;3.33;;;14.60;99.90;;;;;;5073147;28;20035;-58
2021/12/28 06:42:54;;;;;;;18.23;3.40;;;14.60;99.90;;;;;;5069718;28;20032;-59
2021/12/28 06:45:20;;;;;;;18.63;4.07;;;14.60;99.90;;;;;;5070409;28;20047;-59
2021/12/28 06:47:47;;;;;;;15.43;3.30;;;14.60;99.90;;;;;;5069630;28;20032;-58
2021/12/28 06:50:13;;;;;;;11.55;2.97;;;14.70;99.90;;;;;;5069481;28;20036;-59
2021/12/28 06:52:39;;;;;;;10.25;2.33;;;14.60;99.90;;;;;;5073016;28;20024;-58
2021/12/28 06:55:06;;;;;;;11.18;2.33;;;14.60;99.90;;;;;;5069767;28;20028;-58
2021/12/28 06:57:32;;;;;;;11.77;3.13;;;14.60;99.90;;;;;;5069359;28;20395;-58
2021/12/28 06:59:58;;;;;;;12.85;2.80;;;14.60;99.90;;;;;;5069048;28;20040;-59
2021/12/28 07:02:23;;;;;;;11.27;2.35;;;14.50;99.90;;;;;;5069639;28;20487;-59
2021/12/28 07:04:49;;;;;;;11.30;2.50;;;14.60;99.90;;;;;;5071658;28;20044;-59
2021/12/28 07:07:15;;;;;;;12.57;2.45;;;14.50;99.90;;;;;;5070565;28;20027;-58
2021/12/28 07:09:41;;;;;;;10.90;2.65;;;14.40;99.90;;;;;;5068937;28;20021;-59
2021/12/28 07:12:07;;;;;;;12.48;2.70;;;14.50;99.90;;;;;;5068733;28;20475;-58
2021/12/28 07:14:33;;;;;;;17.20;3.30;;;14.50;99.90;;;;;;5070342;28;20157;-58
2021/12/28 07:16:59;;;;;;;15.77;2.78;;;14.40;99.90;;;;;;5070494;28;20104;-59
2021/12/28 07:19:26;;;;;;;14.07;2.90;;;14.50;99.90;;;;;;5070645;28;20037;-59
2021/12/28 07:21:52;;;;;;;15.55;3.20;;;14.50;99.90;;;;;;5068519;28;20027;-58
2021/12/28 07:24:17;;;;;;;15.07;2.90;;;14.50;99.90;;;;;;5069919;28;20501;-59
2021/12/28 07:26:43;;;;;;;10.05;2.45;;;14.50;99.90;;;;;;5068718;28;20028;-59
2021/12/28 07:29:11;;;;;;;9.45;2.13;;;14.50;99.90;;;;;;5068499;28;20032;-58
2021/12/28 07:31:37;;;;;;;11.35;2.65;;;14.40;99.90;;;;;;5073203;28;20056;-58
2021/12/28 07:34:03;;;;;;;10.48;2.33;;;14.40;99.90;;;;;;5068696;28;20044;-58
2021/12/28 07:36:29;;;;;;;7.88;1.98;;;14.40;99.90;;;;;;5068886;28;20019;-58
2021/12/28 07:38:55;;;;;;;8.90;1.83;;;14.30;99.90;;;;;;5068186;28;20039;-58
2021/12/28 07:41:21;;;;;;;8.52;2.08;;;14.30;99.90;;;;;;5068134;28;20025;-59
2021/12/28 07:43:47;;;;;;;7.15;1.80;;;14.20;99.90;;;;;;5070411;28;20029;-58
2021/12/28 07:46:13;;;;;;;9.70;1.90;;;14.20;99.90;;;;;;5070356;28;20033;-58
2021/12/28 07:48:39;;;;;;;5.28;1.58;;;14.30;99.90;;;;;;5068283;28;20031;-59
2021/12/28 07:51:04;;;;;;;7.38;1.50;;;14.30;99.90;;;;;;5068053;28;20044;-58
2021/12/28 07:53:30;;;;;;;5.47;1.60;;;14.30;99.90;;;;;;5069505;28;20040;-59
2021/12/28 07:55:57;;;;;;;5.93;1.42;;;14.30;99.90;;;;;;5070446;28;20112;-58
2021/12/28 07:58:24;;;;;;;5.40;1.50;;;14.30;99.90;;;;;;5070430;28;20021;-58
2021/12/28 08:00:50;;;;;;;6.05;1.38;;;14.30;99.90;;;;;;5067924;28;20458;-58
2021/12/28 08:03:16;;;;;;;6.68;1.92;;;14.20;99.90;;;;;;5069322;28;20518;-58
2021/12/28 08:05:42;;;;;;;5.50;1.90;;;14.20;99.90;;;;;;5067994;28;20045;-58
2021/12/28 08:08:07;;;;;;;6.68;2.00;;;14.20;99.90;;;;;;5068303;28;20555;-58
2021/12/28 08:10:33;;;;;;;4.22;1.50;;;14.20;99.90;;;;;;5071710;28;20490;-58
2021/12/28 08:12:59;;;;;;;2.95;1.42;;;14.20;99.90;;;;;;5067649;28;20032;-58
2021/12/28 08:15:26;;;;;;;3.25;1.35;;;14.20;99.90;;;;;;5067777;28;20490;-59
2021/12/28 08:17:52;;;;;;;4.65;1.42;;;14.20;99.90;;;;;;5067799;28;20036;-59
2021/12/28 08:20:19;;;;;;;6.65;1.30;;;14.20;99.90;;;;;;5067788;28;20035;-58
2021/12/28 08:22:46;;;;;;;3.83;1.35;;;14.20;99.90;;;;;;5070725;28;20107;-59
2021/12/28 08:25:14;;;;;;;4.20;1.50;;;14.20;99.90;;;;;;5069563;28;20032;-58
2021/12/28 08:27:41;;;;;;;2.92;1.20;;;14.20;99.90;;;;;;5066384;28;20029;-58
2021/12/28 08:30:09;;;;;;;3.15;1.25;;;14.20;99.90;;;;;;5067703;28;20028;-59
2021/12/28 08:32:34;;;;;;;2.85;1.30;;;14.20;99.90;;;;;;5069106;28;20043;-59
2021/12/28 08:35:00;;;;;;;5.22;1.55;;;14.20;99.90;;;;;;5069344;28;20033;-58
2021/12/28 08:37:27;;;;;;;3.90;1.52;;;14.20;99.90;;;;;;5070286;28;20089;-59
2021/12/28 08:39:53;;;;;;;2.72;1.00;;;14.20;99.90;;;;;;5067027;28;20556;-59
2021/12/28 08:42:21;;;;;;;3.25;1.17;;;14.20;99.90;;;;;;5069057;28;20024;-58
2021/12/28 08:44:47;;;;;;;3.60;1.15;;;14.20;99.90;;;;;;5068962;28;20036;-58
2021/12/28 08:47:12;;;;;;;1.20;0.80;;;14.20;99.90;;;;;;5068073;28;20483;-58
2021/12/28 08:49:38;;;;;;;2.83;1.10;;;14.20;99.90;;;;;;5071464;28;20048;-58
2021/12/28 08:52:04;;;;;;;1.88;1.00;;;14.20;99.90;;;;;;5069074;28;20479;-59
2021/12/28 08:54:30;;;;;;;1.77;1.00;;;14.20;99.90;;;;;;5067422;28;20522;-58
2021/12/28 08:56:56;;;;;;;1.58;0.90;;;14.10;99.90;;;;;;5067350;28;20024;-58
2021/12/28 08:59:22;;;;;;;1.38;0.80;;;14.10;99.90;;;;;;5067676;28;20068;-58
2021/12/28 09:01:48;;;;;;;2.50;1.23;;;14.10;99.90;;;;;;5070091;28;20422;-58
2021/12/28 09:04:15;;;;;;;1.55;1.08;;;14.10;99.90;;;;;;5068914;28;20101;-59
2021/12/28 09:06:41;;;;;;;2.60;1.15;;;14.10;99.90;;;;;;5067184;28;20032;-59
2021/12/28 09:09:06;;;;;;;3.88;2.30;;;14.10;99.90;;;;;;5067065;28;20478;-57
2021/12/28 09:11:32;;;;;;;1.70;1.30;;;14.10;99.90;;;;;;5068923;28;20021;-58
2021/12/28 09:13:58;;;;;;;3.30;2.15;;;14.10;99.90;;;;;;5069009;28;20095;-59
2021/12/28 09:16:24;;;;;;;7.38;5.95;;;14.10;99.90;;;;;;5069787;28;20052;-58
2021/12/28 09:18:49;;;;;;;27.33;22.98;;;14.10;99.90;;;;;;5067293;28;20028;-58
2021/12/28 09:21:15;;;;;;;29.23;22.48;;;14.00;99.90;;;;;;5068750;28;20034;-58
2021/12/28 09:23:41;;;;;;;17.65;14.75;;;14.00;99.90;;;;;;5066689;28;20044;-58
2021/12/28 09:26:07;;;;;;;6.00;4.55;;;14.00;99.90;;;;;;5051444;28;20760;-59
2021/12/28 09:28:33;;;;;;;7.95;5.40;;;14.00;99.90;;;;;;5070963;28;20036;-58
2021/12/28 09:30:59;;;;;;;6.88;5.55;;;14.00;99.90;;;;;;5066951;28;20036;-58
2021/12/28 09:33:25;;;;;;;6.82;2.97;;;14.00;99.90;;;;;;5066984;28;20120;-58
2021/12/28 09:35:52;;;;;;;5.60;2.70;;;13.90;99.90;;;;;;5068209;28;20217;-59
2021/12/28 09:38:19;;;;;;;2.95;1.80;;;13.90;99.90;;;;;;5070461;28;20025;-58
2021/12/28 09:40:46;;;;;;;3.28;2.35;;;13.90;99.90;;;;;;5073567;28;20028;-58
2021/12/28 09:43:13;;;;;;;3.05;1.88;;;13.90;99.90;;;;;;5073918;28;20043;-58
2021/12/28 09:45:39;;;;;;;3.83;2.30;;;13.90;99.90;;;;;;5070998;28;20037;-58
2021/12/28 09:48:05;;;;;;;2.85;1.00;;;14.00;99.90;;;;;;5070591;28;20025;-59
2021/12/28 09:50:31;;;;;;;3.03;1.70;;;14.10;99.90;;;;;;5072115;28;20104;-58
2021/12/28 09:52:59;;;;;;;4.18;3.75;;;14.10;99.90;;;;;;5072349;28;20063;-58
2021/12/28 09:55:26;;;;;;;4.53;3.65;;;14.10;99.90;;;;;;5073277;28;20032;-58
2021/12/28 09:57:52;;;;;;;3.13;1.40;;;14.10;99.90;;;;;;5070455;28;20082;-58
2021/12/28 10:00:19;;;;;;;7.25;6.55;;;14.00;99.90;;;;;;5071728;28;20082;-59
2021/12/28 10:02:45;;;;;;;10.75;9.57;;;13.90;99.90;;;;;;5070408;28;20051;-58
2021/12/28 10:05:15;;;;;;;20.88;17.88;;;13.90;99.90;;;;;;5070637;28;20081;-58
2021/12/28 10:07:47;;;;;;;27.60;24.75;;;13.90;99.90;;;;;;5073419;28;20024;-58
2021/12/28 10:10:14;;;;;;;8.65;7.82;;;14.00;99.90;;;;;;5071183;28;20020;-58
2021/12/28 10:12:42;;;;;;;14.48;12.98;;;13.90;99.90;;;;;;5070389;28;20032;-58
2021/12/28 10:15:11;;;;;;;6.68;5.95;;;13.90;99.90;;;;;;5070136;28;20406;-58
2021/12/28 10:17:40;;;;;;;3.97;2.60;;;14.00;99.90;;;;;;5070194;28;20380;-58
2021/12/28 10:20:29;;;;;;;3.65;2.10;;;14.00;99.90;;;;;;5070689;28;25204;-58
2021/12/28 10:23:02;;;;;;;4.10;1.90;;;14.00;99.90;;;;;;5069950;28;20620;-59
2021/12/28 10:25:40;;;;;;;4.43;2.80;;;14.00;99.90;;;;;;5073377;28;20028;-58
2021/12/28 10:28:12;;;;;;;5.55;4.57;;;14.00;99.90;;;;;;5072055;28;20122;-58
2021/12/28 10:30:40;;;;;;;2.72;1.48;;;14.00;99.90;;;;;;5071103;28;20036;-58
2021/12/28 10:33:09;;;;;;;17.35;15.77;;;14.00;99.90;;;;;;5069316;28;20511;-58
2021/12/28 10:35:38;;;;;;;3.08;2.72;;;14.10;99.90;;;;;;5069602;28;20024;-58
2021/12/28 10:38:06;;;;;;;19.08;17.40;;;14.10;99.90;;;;;;5071415;28;20043;-58
2021/12/28 10:40:39;;;;;;;29.17;26.73;;;14.10;99.90;;;;;;5073704;28;20052;-58
2021/12/28 10:43:12;;;;;;;5.40;2.88;;;14.20;99.90;;;;;;5071771;28;20037;-59
2021/12/28 10:45:45;;;;;;;3.25;2.53;;;14.20;99.90;;;;;;5069785;28;20052;-58
2021/12/28 10:48:23;;;;;;;4.70;3.25;;;14.20;99.90;;;;;;5068345;28;20078;-59
2021/12/28 10:50:49;;;;;;;4.25;1.90;;;14.20;99.90;;;;;;5069507;28;20028;-59
2021/12/28 10:53:18;;;;;;;4.22;1.42;;;14.20;99.90;;;;;;5069009;28;20040;-58
2021/12/28 10:55:47;;;;;;;1.75;1.40;;;14.20;99.90;;;;;;5072140;28;20399;-59
2021/12/28 10:58:40;;;;;;;1.45;1.20;;;14.20;99.90;;;;;;5070419;28;20021;-59
2021/12/28 11:01:11;;;;;;;2.10;1.90;;;14.30;99.90;;;;;;5069685;28;20121;-58
2021/12/28 11:03:40;;;;;;;3.67;3.38;;;14.20;99.90;;;;;;5068805;28;20055;-58
2021/12/28 11:06:28;;;;;;;2.88;1.38;;;14.30;99.90;;;;;;5067923;28;20536;-58
2021/12/28 11:09:00;;;;;;;1.67;1.30;;;14.30;99.90;;;;;;5070415;28;20021;-58
2021/12/28 11:11:26;;;;;;;2.38;1.48;;;14.40;99.90;;;;;;5069017;28;20510;-58
2021/12/28 11:13:58;;;;;;;1.85;1.35;;;14.30;99.90;;;;;;5071553;28;20056;-58
2021/12/28 11:16:29;;;;;;;1.85;1.00;;;14.40;99.90;;;;;;5070771;28;20025;-58
2021/12/28 11:18:59;;;;;;;1.17;1.00;;;14.40;99.90;;;;;;5070126;28;20436;-59
2021/12/28 11:21:48;;;;;;;5.10;3.85;;;14.40;99.90;;;;;;5068623;28;20108;-58
2021/12/28 11:24:15;;;;;;;6.70;4.80;;;14.40;99.90;;;;;;5065155;28;20132;-59
2021/12/28 11:26:43;;;;;;;2.15;1.98;;;14.40;99.90;;;;;;5068530;28;20360;-58
2021/12/28 11:29:11;;;;;;;4.05;2.70;;;14.20;99.90;;;;;;5069047;28;20025;-58
2021/12/28 11:31:41;;;;;;;4.45;3.05;;;14.20;99.90;;;;;;5072640;28;20506;-58
2021/12/28 11:34:11;;;;;;;4.10;1.65;;;14.20;99.90;;;;;;5069066;28;20162;-58
2021/12/28 11:36:40;;;;;;;2.13;1.92;;;14.10;99.90;;;;;;5068312;28;20036;-58
2021/12/28 11:39:12;;;;;;;2.17;1.98;;;14.20;99.90;;;;;;5068518;28;20031;-58
2021/12/28 11:41:39;;;;;;;1.27;1.17;;;14.20;99.90;;;;;;5068682;28;20111;-59
2021/12/28 11:44:05;;;;;;;2.80;1.90;;;14.20;99.90;;;;;;5068773;28;20060;-58
2021/12/28 11:46:31;;;;;;;2.58;1.88;;;14.10;99.90;;;;;;5071818;28;20060;-58
2021/12/28 11:48:58;;;;;;;1.75;1.63;;;14.10;99.90;;;;;;5069031;28;20478;-58
2021/12/28 11:51:24;;;;;;;3.17;2.38;;;14.10;99.90;;;;;;5067819;28;20052;-58
2021/12/28 11:53:53;;;;;;;1.77;1.30;;;14.10;99.90;;;;;;5066847;28;20036;-58
2021/12/28 11:56:27;;;;;;;15.77;10.32;;;14.10;99.90;;;;;;5068733;28;20499;-58
2021/12/28 11:58:53;;;;;;;;;;;14.10;99.90;;;;;;5070659;28;20104;-59
2021/12/28 12:01:54;;;;;;;3.13;2.42;;;14.10;99.90;;;;;;5069477;28;20003;-59
2021/12/28 12:04:34;;;;;;;3.53;1.60;;;14.10;99.90;;;;;;5069619;28;20116;-58
2021/12/28 12:07:12;;;;;;;4.35;2.40;;;14.10;99.90;;;;;;5067560;28;20398;-57
2021/12/28 12:09:51;;;;;;;2.15;0.90;;;14.20;99.90;;;;;;5067852;28;20386;-59
2021/12/28 12:12:19;;;;;;;3.67;2.00;;;14.20;99.90;;;;;;5067943;28;20039;-58
2021/12/28 12:14:51;;;;;;;3.80;1.30;;;14.30;99.90;;;;;;5067678;28;20438;-59
2021/12/28 12:17:28;;;;;;;3.67;1.52;;;14.30;99.90;;;;;;5067667;28;20031;-58
2021/12/28 12:20:16;;;;;;;5.55;1.90;;;14.30;99.90;;;;;;5069702;28;20452;-58
2021/12/28 12:23:07;;;;;;;6.43;2.20;;;14.40;99.90;;;;;;5067279;28;20025;-58
2021/12/28 12:25:57;;;;;;;14.07;8.25;;;14.40;99.90;;;;;;5071689;28;20475;-58
2021/12/28 12:28:34;;;;;;;12.32;6.13;;;14.50;99.90;;;;;;5069930;28;20029;-58
2021/12/28 12:31:01;;;;;;;11.88;6.50;;;14.60;99.90;;;;;;5067497;28;20574;-58
2021/12/28 12:33:42;;;;;;;21.27;11.30;;;14.60;99.90;;;;;;5067210;28;20052;-58
2021/12/28 12:36:17;;;;;;;12.45;6.18;;;14.70;99.90;;;;;;5068868;28;20027;-58
2021/12/28 12:38:43;;;;;;;15.65;4.95;;;14.60;99.90;;;;;;5067008;28;20093;-58
2021/12/28 12:41:17;;;;;;;11.10;2.97;;;14.60;99.90;;;;;;5066427;28;20024;-58
2021/12/28 12:44:06;;;;;;;12.52;3.03;;;14.60;99.90;;;;;;5069170;28;20032;-58